createdAt,value
2019-01-12T00:04:55.915Z,82.10
2019-01-12T00:10:07.716Z,81.10
2019-01-12T00:15:19.860Z,81.50
2019-01-12T00:20:31.551Z,81.10
2019-01-12T00:25:43.369Z,81.90
2019-01-12T00:30:55.201Z,81.90
2019-01-12T00:35:55.344Z,81.30
2019-01-12T00:41:06.876Z,81.50
2019-01-12T00:46:18.569Z,81.90
2019-01-12T00:51:30.792Z,81.90
2019-01-12T00:56:42.732Z,82.10
2019-01-12T01:01:54.851Z,82.10
2019-01-12T01:07:06.520Z,82.10
2019-01-12T01:12:18.652Z,82.10
2019-01-12T01:17:30.339Z,81.30
2019-01-12T01:22:42.058Z,80.90
2019-01-12T01:27:53.863Z,80.90
2019-01-12T01:33:05.292Z,81.00
2019-01-12T01:38:16.788Z,81.30
2019-01-12T01:43:28.096Z,80.70
2019-01-12T01:48:39.416Z,81.00
2019-01-12T01:53:51.331Z,81.20
2019-01-12T01:59:02.634Z,81.40
2019-01-12T02:04:02.298Z,80.80
2019-01-12T02:09:21.183Z,80.80
2019-01-12T02:14:33.236Z,80.90
2019-01-12T02:19:44.748Z,81.00
2019-01-12T02:25:00.061Z,80.70
2019-01-12T02:30:09.956Z,80.20
2019-01-12T02:35:21.676Z,80.50
2019-01-12T02:40:33.196Z,80.70
2019-01-12T02:45:45.264Z,81.00
2019-01-12T02:50:57.245Z,81.00
2019-01-12T02:56:09.203Z,80.50
2019-01-12T03:01:21.112Z,80.70
2019-01-12T03:06:32.848Z,80.80
2019-01-12T03:11:44.831Z,80.00
2019-01-12T03:16:56.972Z,80.40
2019-01-12T03:22:09.203Z,80.50
2019-01-12T03:27:21.006Z,80.20
2019-01-12T03:32:33.061Z,80.50
2019-01-12T03:37:44.944Z,80.60
2019-01-12T03:42:56.401Z,80.70
2019-01-12T03:48:08.494Z,80.50
2019-01-12T03:53:20.255Z,81.00
2019-01-12T03:58:31.920Z,81.10
2019-01-12T04:03:43.928Z,81.60
2019-01-12T04:08:56.888Z,81.70
2019-01-12T04:14:08.629Z,81.60
2019-01-12T04:19:20.747Z,82.00
2019-01-12T04:24:32.226Z,82.10
2019-01-12T04:29:44.371Z,82.30
2019-01-12T04:34:56.523Z,82.00
2019-01-12T04:40:08.284Z,82.60
2019-01-12T04:45:20.319Z,82.50
2019-01-12T04:50:32.227Z,82.90
2019-01-12T04:55:44.049Z,83.20
2019-01-12T05:00:55.602Z,83.70
2019-01-12T05:06:07.930Z,84.10
2019-01-12T05:11:19.531Z,84.40
2019-01-12T05:16:31.187Z,84.40
2019-01-12T05:21:43.108Z,85.00
2019-01-12T05:26:55.149Z,84.80
2019-01-12T05:32:06.820Z,85.20
2019-01-12T05:37:18.564Z,85.50
2019-01-12T05:42:30.903Z,85.70
2019-01-12T05:47:42.744Z,86.00
2019-01-12T05:52:54.032Z,86.50
2019-01-12T05:58:05.840Z,86.40
2019-01-12T06:03:17.271Z,86.20
2019-01-12T06:08:29.268Z,86.40
2019-01-12T06:13:40.633Z,86.50
2019-01-12T06:18:52.708Z,86.50
2019-01-12T06:24:04.707Z,86.70
2019-01-12T06:29:16.360Z,87.00
2019-01-12T06:34:28.276Z,87.00
2019-01-12T06:39:39.864Z,87.00
2019-01-12T06:44:51.928Z,87.20
2019-01-12T06:50:04.087Z,87.00
2019-01-12T06:55:15.971Z,87.20
2019-01-12T07:00:27.860Z,87.20
2019-01-12T07:05:39.319Z,87.10
2019-01-12T07:10:50.685Z,87.20
2019-01-12T07:16:02.902Z,87.10
2019-01-12T07:21:14.520Z,87.20
2019-01-12T07:26:17.522Z,87.10
2019-01-12T07:31:40.084Z,87.30
2019-01-12T07:36:53.488Z,87.40
2019-01-12T07:42:04.754Z,87.30
2019-01-12T07:47:16.703Z,87.60
2019-01-12T07:52:28.064Z,87.60
2019-01-12T07:57:40.095Z,87.90
2019-01-12T08:02:53.119Z,87.90
2019-01-12T08:08:05.382Z,87.90
2019-01-12T08:13:16.949Z,88.10
2019-01-12T08:18:16.612Z,88.10
2019-01-12T08:24:01.124Z,88.20
2019-01-12T09:08:15.234Z,88.60
2019-01-12T09:13:27.296Z,88.30
2019-01-12T09:18:39.260Z,88.40
2019-01-12T09:23:51.497Z,88.40
2019-01-12T09:29:03.430Z,88.30
2019-01-12T11:19:26.353Z,88.60
2019-01-12T12:03:21.067Z,90.00
2019-01-12T12:08:33.051Z,89.80
2019-01-12T12:13:45.450Z,90.20
2019-01-12T12:18:59.485Z,89.90
2019-01-12T12:24:11.235Z,90.10
2019-01-12T12:29:23.436Z,90.20
2019-01-12T12:34:35.562Z,90.10
2019-01-12T12:39:47.593Z,90.30
2019-01-12T12:44:59.153Z,90.40
2019-01-12T12:50:11.364Z,90.60
2019-01-12T12:55:23.494Z,90.60
2019-01-12T13:00:37.072Z,90.60
2019-01-12T13:05:48.408Z,90.80
2019-01-12T13:11:00.356Z,90.70
2019-01-12T13:16:14.855Z,90.80
2019-01-12T13:21:27.187Z,90.70
2019-01-12T13:26:38.836Z,90.80
2019-01-12T13:31:50.498Z,90.70
2019-01-12T13:37:02.227Z,90.80
2019-01-12T13:42:14.247Z,90.80
2019-01-12T13:47:20.660Z,90.80
2019-01-12T13:52:34.470Z,91.20
2019-01-12T13:57:34.139Z,90.90
2019-01-12T14:02:33.846Z,90.90
2019-01-12T14:07:45.962Z,90.90
2019-01-12T14:12:45.972Z,91.00
2019-01-12T14:17:45.901Z,91.10
2019-01-12T14:22:58.153Z,91.10
2019-01-12T14:28:09.971Z,91.20
2019-01-12T14:33:21.739Z,91.20
2019-01-12T14:38:34.038Z,91.20
2019-01-12T14:43:46.430Z,91.20
2019-01-12T14:48:57.737Z,91.20
2019-01-12T14:54:09.698Z,91.40
2019-01-12T14:59:21.687Z,91.40
2019-01-12T15:04:34.291Z,91.50
2019-01-12T15:09:46.196Z,91.50
2019-01-12T15:14:58.136Z,91.50
2019-01-12T15:20:09.656Z,91.50
2019-01-12T15:25:20.903Z,91.50
2019-01-12T15:30:32.729Z,91.40
2019-01-12T15:35:44.880Z,91.70
2019-01-12T15:40:56.743Z,91.40
2019-01-12T15:46:08.588Z,90.80
2019-01-12T15:51:20.452Z,91.30
2019-01-12T15:56:32.191Z,90.80
2019-01-12T16:01:45.253Z,90.70
2019-01-12T16:06:57.356Z,90.70
2019-01-12T16:12:08.931Z,90.70
2019-01-12T16:17:21.108Z,90.60
2019-01-12T16:22:32.292Z,90.40
2019-01-12T16:27:44.362Z,91.10
2019-01-12T16:32:56.401Z,90.60
2019-01-12T16:38:08.315Z,91.10
2019-01-12T16:43:20.281Z,91.00
2019-01-12T16:48:32.936Z,91.10
2019-01-12T16:53:44.884Z,91.30
2019-01-12T16:58:44.681Z,91.00
2019-01-12T17:04:03.669Z,90.90
2019-01-12T17:09:15.333Z,90.80
2019-01-12T17:14:27.006Z,90.80
2019-01-12T17:19:38.872Z,90.70
2019-01-12T17:24:50.889Z,90.70
2019-01-12T17:30:02.936Z,90.70
2019-01-12T17:35:14.384Z,90.80
2019-01-12T17:40:26.662Z,91.20
2019-01-12T17:45:44.803Z,91.30
2019-01-12T17:51:12.817Z,91.00
2019-01-12T18:12:34.337Z,91.10
2019-01-12T21:14:25.691Z,91.70
2019-01-12T21:30:48.593Z,91.40
2019-01-12T21:36:00.467Z,91.40
2019-01-12T21:41:12.306Z,91.20
2019-01-12T21:46:24.206Z,91.20
2019-01-12T21:51:35.931Z,91.40
2019-01-12T21:56:47.957Z,91.30
2019-01-12T22:01:59.544Z,91.30
2019-01-12T22:07:11.271Z,91.40
2019-01-12T22:12:23.276Z,91.50
2019-01-12T22:17:35.375Z,91.20
2019-01-12T22:22:46.794Z,91.00
2019-01-12T22:27:58.737Z,91.00
2019-01-12T22:32:58.475Z,91.10
2019-01-12T22:38:17.627Z,90.90
2019-01-12T22:43:29.669Z,91.10
2019-01-12T22:48:40.965Z,90.90
2019-01-12T22:53:53.300Z,91.00
2019-01-12T22:59:05.115Z,91.10
2019-01-12T23:04:17.028Z,90.90
2019-01-12T23:09:29.563Z,91.20
2019-01-12T23:14:29.483Z,91.10
2019-01-12T23:19:48.464Z,91.20
2019-01-12T23:25:00.189Z,91.00
2019-01-12T23:30:11.822Z,91.20
2019-01-12T23:35:11.712Z,91.00
2019-01-12T23:46:08.181Z,91.10
2019-01-12T23:51:20.186Z,91.10
2019-01-12T23:56:31.793Z,91.00
